Terminal Aerodrome Forecast
Issued by NWS Goodland, KS

Home | Current Version | Previous Version | Text Only | Print | Product List | Glossary On
Versions: 1 2 3 4 5 6 7 8 9 10 11 12 13 14 15 16 17 18 19 20 21 22
000
FTUS43 KGLD 260326 AAB
TAFGLD
TAF AMD
KGLD 260326Z 2603/2624 10015KT P6SM OVC008
     FM260500 11012KT 6SM BR OVC006
     FM260600 11012KT 6SM BR VCTS OVC006CB
      TEMPO 2607/2611 -TSRA
     FM261100 11012KT 4SM BR VCTS OVC004CB
      TEMPO 2611/2615 -TSRA
     FM261600 10012KT 4SM BR VCSH OVC004
     FM262200 09013KT 4SM BR VCSH OVC006=

USA.gov is the U.S. government's official web portal to all federal, state and local government web resources and services.